createdAt,value
2022-11-20T00:01:33.005Z,100629.27
2022-11-20T00:04:05.204Z,100631.46
2022-11-20T00:06:36.866Z,100635.65
2022-11-20T00:09:08.673Z,100633.91
2022-11-20T00:11:40.323Z,100635.34
2022-11-20T00:14:13.266Z,100628.88
2022-11-20T00:16:44.790Z,100630.17
2022-11-20T00:19:17.421Z,100635.40
2022-11-20T00:21:52.395Z,100635.66
2022-11-20T00:24:25.919Z,100632.14
2022-11-20T00:26:57.608Z,100629.98
2022-11-20T00:29:31.200Z,100628.35
2022-11-20T00:32:02.891Z,100625.83
2022-11-20T00:34:34.755Z,100625.73
2022-11-20T00:37:06.518Z,100626.84
2022-11-20T00:39:39.086Z,100631.77
2022-11-20T00:42:12.661Z,100625.36
2022-11-20T00:44:45.118Z,100623.08
2022-11-20T00:47:20.885Z,100623.42
2022-11-20T00:49:53.154Z,100619.38
2022-11-20T00:52:24.806Z,100618.83
2022-11-20T00:54:56.558Z,100619.77
2022-11-20T00:57:28.266Z,100627.84
2022-11-20T01:00:00.335Z,100619.94
2022-11-20T01:02:32.325Z,100614.73
2022-11-20T01:05:04.258Z,100613.16
2022-11-20T01:07:39.468Z,100608.52
2022-11-20T01:10:12.075Z,100600.91
2022-11-20T01:12:43.751Z,100598.18
2022-11-20T01:15:17.868Z,100599.66
2022-11-20T01:17:49.484Z,100602.60
2022-11-20T01:20:21.477Z,100597.26
2022-11-20T01:22:53.137Z,100599.96
2022-11-20T01:25:24.981Z,100596.58
2022-11-20T01:27:56.712Z,100593.44
2022-11-20T01:30:28.608Z,100590.29
2022-11-20T01:33:00.183Z,100583.27
2022-11-20T01:35:32.229Z,100578.52
2022-11-20T01:38:03.883Z,100580.10
2022-11-20T01:40:35.877Z,100573.64
2022-11-20T01:43:22.588Z,100574.23
2022-11-20T01:46:10.696Z,100577.73
2022-11-20T01:48:48.247Z,100576.44
2022-11-20T01:51:25.274Z,100570.30
2022-11-20T01:53:57.795Z,100568.30
2022-11-20T01:56:30.411Z,100568.05
2022-11-20T01:59:04.185Z,100564.41
2022-11-20T02:01:36.257Z,100564.64
2022-11-20T02:04:08.956Z,100567.69
2022-11-20T02:06:44.645Z,100568.44
2022-11-20T02:09:17.747Z,100567.45
2022-11-20T02:11:50.102Z,100568.46
2022-11-20T02:14:22.078Z,100568.95
2022-11-20T02:16:54.335Z,100573.40
2022-11-20T02:19:28.615Z,100576.66
2022-11-20T02:22:04.559Z,100576.89
2022-11-20T02:24:36.187Z,100581.63
2022-11-20T02:27:11.614Z,100581.16
2022-11-20T02:29:47.940Z,100576.64
2022-11-20T02:32:23.705Z,100567.07
2022-11-20T02:34:55.499Z,100571.64
2022-11-20T02:37:36.800Z,100573.55
2022-11-20T02:40:11.037Z,100574.12
2022-11-20T02:42:43.099Z,100575.20
2022-11-20T02:45:14.957Z,100578.89
2022-11-20T02:47:46.699Z,100576.83
2022-11-20T02:50:18.576Z,100578.39
2022-11-20T02:52:50.338Z,100581.86
2022-11-20T02:55:22.201Z,100587.35
2022-11-20T02:57:54.311Z,100585.00
2022-11-20T03:00:25.941Z,100585.73
2022-11-20T03:02:57.787Z,100581.25
2022-11-20T03:05:29.450Z,100577.92
2022-11-20T03:08:01.397Z,100579.73
2022-11-20T03:10:33.070Z,100579.70
2022-11-20T03:13:05.003Z,100580.04
2022-11-20T03:15:37.759Z,100577.05
2022-11-20T03:18:09.859Z,100576.19
2022-11-20T03:20:41.480Z,100573.89
2022-11-20T03:23:13.402Z,100565.86
2022-11-20T03:25:46.138Z,100563.96
2022-11-20T03:28:17.909Z,100563.01
2022-11-20T03:30:49.581Z,100565.65
2022-11-20T03:33:21.443Z,100568.81
2022-11-20T03:35:53.010Z,100564.34
2022-11-20T03:38:24.896Z,100565.11
2022-11-20T03:41:02.453Z,100559.79
2022-11-20T03:43:34.717Z,100561.14
2022-11-20T03:46:07.250Z,100556.32
2022-11-20T03:48:39.008Z,100554.14
2022-11-20T03:51:15.174Z,100551.08
2022-11-20T03:53:49.156Z,100542.76
2022-11-20T03:56:22.992Z,100547.54
2022-11-20T03:58:54.992Z,100550.53
2022-11-20T04:01:28.652Z,100549.73
2022-11-20T04:04:00.870Z,100552.73
2022-11-20T04:06:35.928Z,100550.14
2022-11-20T04:09:09.059Z,100554.38
2022-11-20T04:11:43.410Z,100551.98
2022-11-20T04:14:17.800Z,100549.40
2022-11-20T04:16:49.386Z,100548.93
2022-11-20T04:19:21.275Z,100546.58
2022-11-20T04:21:53.172Z,100547.31
2022-11-20T04:24:25.436Z,100544.07
2022-11-20T04:26:57.069Z,100541.14
2022-11-20T04:29:29.045Z,100541.70
2022-11-20T04:32:00.638Z,100536.71
2022-11-20T04:34:32.338Z,100532.95
2022-11-20T04:37:03.972Z,100537.55
2022-11-20T04:39:36.153Z,100539.81
2022-11-20T04:42:25.711Z,100539.90
2022-11-20T04:44:58.685Z,100535.83
2022-11-20T04:47:30.489Z,100533.86
2022-11-20T04:50:02.332Z,100528.76
2022-11-20T04:52:34.029Z,100527.65
2022-11-20T04:55:06.585Z,100527.27
2022-11-20T04:57:38.310Z,100532.59
2022-11-20T05:00:12.850Z,100526.90
2022-11-20T05:02:44.682Z,100524.67
2022-11-20T05:05:17.164Z,100522.98
2022-11-20T05:07:48.798Z,100523.65
2022-11-20T05:10:20.731Z,100523.73
2022-11-20T05:12:52.362Z,100525.41
2022-11-20T05:15:24.281Z,100521.66
2022-11-20T05:17:56.513Z,100522.50
2022-11-20T05:20:28.255Z,100524.66
2022-11-20T05:23:01.330Z,100527.02
2022-11-20T05:25:33.261Z,100530.61
2022-11-20T05:28:05.079Z,100530.44
2022-11-20T05:30:37.087Z,100524.80
2022-11-20T05:33:10.073Z,100526.29
2022-11-20T05:35:41.801Z,100520.48
2022-11-20T05:38:13.465Z,100519.85
2022-11-20T05:40:45.289Z,100515.08
2022-11-20T05:43:16.944Z,100516.13
2022-11-20T05:45:57.283Z,100514.59
2022-11-20T05:48:29.070Z,100515.20
2022-11-20T05:51:02.508Z,100516.68
2022-11-20T05:53:35.441Z,100514.71
2022-11-20T05:56:11.139Z,100515.11
2022-11-20T05:58:43.111Z,100518.30
2022-11-20T06:01:17.699Z,100518.16
2022-11-20T06:03:51.677Z,100515.77
2022-11-20T06:06:24.516Z,100512.64
2022-11-20T06:08:56.309Z,100505.86
2022-11-20T06:11:28.413Z,100503.93
2022-11-20T06:14:00.048Z,100502.06
2022-11-20T06:16:32.128Z,100501.92
2022-11-20T06:19:03.778Z,100499.55
2022-11-20T06:21:35.826Z,100496.29
2022-11-20T06:24:08.262Z,100497.20
2022-11-20T06:26:42.394Z,100496.36
2022-11-20T06:29:12.534Z,100495.50
2022-11-20T06:31:44.679Z,100496.04
2022-11-20T06:34:16.429Z,100497.42
2022-11-20T06:36:48.605Z,100497.77
2022-11-20T06:39:20.695Z,100495.18
2022-11-20T06:41:58.369Z,100499.03
2022-11-20T06:44:30.665Z,100500.70
2022-11-20T06:47:02.384Z,100498.56
2022-11-20T06:49:35.389Z,100497.63
2022-11-20T06:52:07.433Z,100498.73
2022-11-20T06:54:39.135Z,100500.14
2022-11-20T06:57:11.587Z,100500.20
2022-11-20T06:59:43.251Z,100497.59
2022-11-20T07:02:15.808Z,100497.23
2022-11-20T07:04:47.488Z,100493.90
2022-11-20T07:07:19.564Z,100496.23
2022-11-20T07:09:54.036Z,100491.42
2022-11-20T07:12:25.740Z,100484.20
2022-11-20T07:14:57.687Z,100483.09
2022-11-20T07:17:29.499Z,100477.42
2022-11-20T07:20:01.371Z,100479.77
2022-11-20T07:22:33.267Z,100475.77
2022-11-20T07:25:05.650Z,100469.83
2022-11-20T07:27:37.887Z,100471.86
2022-11-20T07:30:11.130Z,100474.41
2022-11-20T07:32:42.773Z,100471.51
2022-11-20T07:35:14.445Z,100471.54
2022-11-20T07:37:47.075Z,100471.59
2022-11-20T07:40:20.887Z,100473.16
2022-11-20T07:42:53.434Z,100471.42
2022-11-20T07:45:26.075Z,100469.45
2022-11-20T07:47:58.126Z,100465.35
2022-11-20T07:50:29.810Z,100464.73
2022-11-20T07:53:09.085Z,100462.66
2022-11-20T07:55:40.708Z,100458.17
2022-11-20T07:58:12.951Z,100461.45
2022-11-20T08:00:44.840Z,100458.30
2022-11-20T08:03:21.646Z,100453.25
2022-11-20T08:05:56.348Z,100447.88
2022-11-20T08:08:28.055Z,100447.23
2022-11-20T08:11:22.212Z,100447.86
2022-11-20T08:14:11.849Z,100442.19
2022-11-20T08:16:44.163Z,100441.92
2022-11-20T08:19:18.578Z,100438.80
2022-11-20T08:21:50.644Z,100440.39
2022-11-20T08:24:22.781Z,100438.59
2022-11-20T08:26:54.427Z,100435.42
2022-11-20T08:29:26.139Z,100435.00
2022-11-20T08:31:57.788Z,100433.48
2022-11-20T08:34:43.129Z,100431.27
2022-11-20T08:37:14.717Z,100422.86
2022-11-20T08:39:48.171Z,100425.67
2022-11-20T08:42:19.967Z,100422.23
2022-11-20T08:44:51.969Z,100423.60
2022-11-20T08:47:23.598Z,100422.40
2022-11-20T08:49:55.544Z,100417.31
2022-11-20T08:52:27.165Z,100413.90
2022-11-20T08:54:59.452Z,100406.92
2022-11-20T08:57:31.036Z,100401.40
2022-11-20T09:00:07.124Z,100398.09
2022-11-20T09:02:39.079Z,100393.80
2022-11-20T09:05:11.545Z,100391.48
2022-11-20T09:07:43.256Z,100388.89
2022-11-20T09:10:24.473Z,100385.91
2022-11-20T09:12:57.416Z,100384.45
2022-11-20T09:15:30.272Z,100380.37
2022-11-20T09:18:03.476Z,100384.92
2022-11-20T09:20:35.384Z,100383.59
2022-11-20T09:23:07.012Z,100379.19
2022-11-20T09:25:39.028Z,100379.02
2022-11-20T09:28:10.704Z,100375.80
2022-11-20T09:30:42.870Z,100374.45
2022-11-20T09:33:14.636Z,100380.86
2022-11-20T09:35:46.632Z,100377.77
2022-11-20T09:38:18.351Z,100376.75
2022-11-20T09:40:55.339Z,100370.51
2022-11-20T09:43:35.248Z,100365.67
2022-11-20T09:46:12.968Z,100362.94
2022-11-20T09:48:54.691Z,100359.04
2022-11-20T09:51:35.691Z,100361.54
2022-11-20T09:54:17.744Z,100362.95
2022-11-20T09:56:54.160Z,100362.89
2022-11-20T09:59:37.492Z,100367.39
2022-11-20T10:02:30.602Z,100368.34
2022-11-20T10:05:06.627Z,100369.42
2022-11-20T10:07:43.752Z,100367.16
2022-11-20T10:10:19.793Z,100368.34
2022-11-20T10:13:03.579Z,100368.79
2022-11-20T10:15:40.510Z,100367.11
2022-11-20T10:18:25.997Z,100361.13
2022-11-20T10:21:04.926Z,100359.93
2022-11-20T10:23:51.207Z,100352.83
2022-11-20T10:26:28.347Z,100344.92
2022-11-20T10:29:09.098Z,100343.55
2022-11-20T10:31:43.187Z,100340.57
2022-11-20T10:34:23.571Z,100340.92
2022-11-20T10:36:58.592Z,100338.86
2022-11-20T10:39:36.486Z,100332.20
2022-11-20T10:42:13.039Z,100328.13
2022-11-20T10:45:06.753Z,100330.23
2022-11-20T10:47:39.216Z,100327.92
2022-11-20T10:50:19.029Z,100322.86
2022-11-20T10:53:03.357Z,100328.23
2022-11-20T10:55:40.920Z,100324.84
2022-11-20T10:58:19.325Z,100326.18
2022-11-20T11:00:51.429Z,100329.01
2022-11-20T11:03:28.320Z,100328.92
2022-11-20T11:06:03.688Z,100326.85
2022-11-20T11:08:39.876Z,100323.06
2022-11-20T11:11:24.379Z,100323.15
2022-11-20T11:13:56.120Z,100319.87
2022-11-20T11:16:29.332Z,100318.32
2022-11-20T11:19:12.822Z,100315.89
2022-11-20T11:21:55.654Z,100312.29
2022-11-20T11:24:44.215Z,100308.40
2022-11-20T11:27:19.156Z,100306.58
2022-11-20T11:29:51.039Z,100306.98
2022-11-20T11:32:24.088Z,100311.65
2022-11-20T11:35:08.485Z,100313.09
2022-11-20T11:37:41.329Z,100315.73
2022-11-20T11:40:30.087Z,100310.66
2022-11-20T11:43:04.125Z,100314.48
2022-11-20T11:45:36.016Z,100309.78
2022-11-20T11:48:12.162Z,100302.72
2022-11-20T11:50:52.992Z,100303.53
2022-11-20T11:53:26.000Z,100302.27
2022-11-20T11:56:04.927Z,100304.84
2022-11-20T11:58:47.098Z,100294.34
2022-11-20T12:01:29.342Z,100290.35
2022-11-20T12:04:04.881Z,100285.56
2022-11-20T12:06:38.766Z,100280.30
2022-11-20T12:09:12.935Z,100278.16
2022-11-20T12:11:49.409Z,100276.10
2022-11-20T12:14:28.607Z,100280.34
2022-11-20T12:17:00.645Z,100273.67
2022-11-20T12:19:34.978Z,100270.76
2022-11-20T12:22:14.163Z,100265.70
2022-11-20T12:24:56.294Z,100264.17
2022-11-20T12:27:50.089Z,100261.80
2022-11-20T12:30:23.315Z,100257.20
2022-11-20T12:33:29.248Z,100258.23
2022-11-20T12:36:12.067Z,100256.27
2022-11-20T12:39:00.115Z,100250.46
2022-11-20T12:42:05.990Z,100250.52
2022-11-20T12:45:11.823Z,100247.13
2022-11-20T12:48:11.806Z,100245.20
2022-11-20T12:51:13.924Z,100244.38
2022-11-20T12:53:49.701Z,100240.67
2022-11-20T12:56:29.937Z,100238.77
2022-11-20T12:59:11.786Z,100237.52
2022-11-20T13:01:50.735Z,100232.49
2022-11-20T13:04:34.631Z,100229.34
2022-11-20T13:07:10.939Z,100227.20
2022-11-20T13:09:45.893Z,100224.20
2022-11-20T13:12:22.246Z,100223.30
2022-11-20T13:14:58.211Z,100222.61
2022-11-20T13:17:35.636Z,100222.02
2022-11-20T13:20:14.279Z,100216.20
2022-11-20T13:22:50.723Z,100211.47
2022-11-20T13:25:33.706Z,100209.77
2022-11-20T13:28:07.934Z,100204.16
2022-11-20T13:30:50.919Z,100204.91
2022-11-20T13:33:31.406Z,100199.43
2022-11-20T13:36:05.638Z,100198.34
2022-11-20T13:38:44.251Z,100197.95
2022-11-20T13:41:32.488Z,100200.25
2022-11-20T13:44:15.749Z,100202.05
2022-11-20T13:46:49.153Z,100198.25
2022-11-20T13:49:26.057Z,100198.84
2022-11-20T13:52:08.844Z,100194.79
2022-11-20T13:54:55.275Z,100188.96
2022-11-20T13:57:47.163Z,100182.38
2022-11-20T14:00:21.698Z,100178.45
2022-11-20T14:03:04.223Z,100184.34
2022-11-20T14:05:39.225Z,100187.89
2022-11-20T14:08:28.021Z,100185.73
2022-11-20T14:11:14.832Z,100187.29
2022-11-20T14:14:03.363Z,100184.89
2022-11-20T14:16:37.066Z,100184.20
2022-11-20T14:19:31.554Z,100181.38
2022-11-20T14:22:20.222Z,100174.32
2022-11-20T14:25:03.392Z,100172.13
2022-11-20T14:27:37.925Z,100176.15
2022-11-20T14:30:17.742Z,100176.36
2022-11-20T14:32:50.587Z,100171.61
2022-11-20T14:35:26.266Z,100167.11
2022-11-20T14:37:58.551Z,100166.88
2022-11-20T14:40:37.063Z,100164.25
2022-11-20T14:43:25.584Z,100163.16
2022-11-20T14:46:02.063Z,100161.89
2022-11-20T14:48:40.928Z,100157.34
2022-11-20T14:51:21.570Z,100156.80
2022-11-20T14:54:16.340Z,100161.09
2022-11-20T14:56:59.563Z,100161.30
2022-11-20T14:59:32.607Z,100159.32
2022-11-20T15:02:07.489Z,100158.32
2022-11-20T15:04:48.439Z,100159.81
2022-11-20T15:07:31.528Z,100153.94
2022-11-20T15:10:10.369Z,100154.67
2022-11-20T15:12:48.177Z,100151.85
2022-11-20T15:15:23.083Z,100151.63
2022-11-20T15:17:55.366Z,100146.23
2022-11-20T15:20:31.775Z,100142.11
2022-11-20T15:23:04.501Z,100140.27
2022-11-20T15:25:40.030Z,100141.14
2022-11-20T15:28:18.749Z,100143.88
2022-11-20T15:30:52.116Z,100148.66
2022-11-20T15:33:26.891Z,100152.04
2022-11-20T15:36:01.101Z,100158.79
2022-11-20T15:38:34.186Z,100153.73
2022-11-20T15:41:10.609Z,100154.55
2022-11-20T15:43:45.054Z,100149.70
2022-11-20T15:46:21.756Z,100150.90
2022-11-20T15:48:58.619Z,100148.06
2022-11-20T15:51:33.111Z,100148.73
2022-11-20T15:54:10.420Z,100151.48
2022-11-20T15:56:43.403Z,100150.27
2022-11-20T15:59:17.361Z,100152.00
2022-11-20T16:01:52.065Z,100149.08
2022-11-20T16:04:25.008Z,100148.91
2022-11-20T16:07:02.065Z,100145.20
2022-11-20T16:09:34.674Z,100145.04
2022-11-20T16:12:30.624Z,100144.08
2022-11-20T16:15:21.269Z,100141.50
2022-11-20T16:17:57.140Z,100141.77
2022-11-20T16:20:30.651Z,100140.59
2022-11-20T16:23:12.477Z,100135.61
2022-11-20T16:25:46.142Z,100138.17
2022-11-20T16:28:19.314Z,100141.10
2022-11-20T16:30:52.146Z,100144.16
2022-11-20T16:33:25.939Z,100141.23
2022-11-20T16:36:01.929Z,100139.66
2022-11-20T16:38:34.762Z,100147.52
2022-11-20T16:41:14.485Z,100149.39
2022-11-20T16:43:51.857Z,100145.73
2022-11-20T17:12:50.280Z,100132.26
2022-11-20T17:15:22.218Z,100134.90
2022-11-20T17:17:54.202Z,100129.83
2022-11-20T17:20:26.250Z,100131.61
2022-11-20T17:22:59.420Z,100128.69
2022-11-20T17:25:36.607Z,100129.11
2022-11-20T17:28:09.221Z,100128.98
2022-11-20T17:30:41.878Z,100128.54
2022-11-20T17:33:14.673Z,100124.06
2022-11-20T17:35:47.005Z,100123.77
2022-11-20T17:38:19.770Z,100120.27
2022-11-20T17:40:51.634Z,100116.86
2022-11-20T17:43:23.789Z,100114.23
2022-11-20T17:45:58.930Z,100107.55
2022-11-20T17:48:34.428Z,100104.00
2022-11-20T17:51:08.335Z,100100.95
2022-11-20T17:53:45.545Z,100093.95
2022-11-20T17:56:34.915Z,100091.23
2022-11-20T17:59:09.141Z,100083.74
2022-11-20T18:01:43.263Z,100076.11
2022-11-20T18:04:13.978Z,100078.21
2022-11-20T18:06:46.687Z,100072.45
2022-11-20T18:09:19.881Z,100072.29
2022-11-20T18:11:51.766Z,100072.21
2022-11-20T18:14:34.663Z,100067.41
2022-11-20T18:17:07.737Z,100065.64
2022-11-20T18:19:51.619Z,100062.62
2022-11-20T18:22:32.584Z,100061.90
2022-11-20T18:25:04.320Z,100053.48
2022-11-20T18:27:36.533Z,100048.92
2022-11-20T18:30:10.309Z,100045.95
2022-11-20T18:32:42.825Z,100051.57
2022-11-20T18:35:15.344Z,100052.73
2022-11-20T18:37:48.157Z,100052.70
2022-11-20T18:40:20.552Z,100055.14
2022-11-20T18:43:09.990Z,100053.54
2022-11-20T18:45:42.636Z,100054.85
2022-11-20T18:48:14.594Z,100054.48
2022-11-20T18:50:47.062Z,100056.79
2022-11-20T18:53:18.935Z,100057.80
2022-11-20T18:55:51.268Z,100055.11
2022-11-20T18:58:23.081Z,100052.41
2022-11-20T19:00:55.298Z,100054.06
2022-11-20T19:03:29.673Z,100056.27
2022-11-20T19:06:02.048Z,100057.17
2022-11-20T19:08:36.578Z,100058.77
2022-11-20T19:11:10.355Z,100054.46
2022-11-20T19:13:42.397Z,100052.39
2022-11-20T19:16:18.043Z,100049.45
2022-11-20T19:18:50.338Z,100044.73
2022-11-20T19:21:23.943Z,100042.94
2022-11-20T19:23:58.539Z,100038.65
2022-11-20T19:26:31.271Z,100031.77
2022-11-20T19:29:15.766Z,100032.02
2022-11-20T19:31:49.282Z,100025.00
2022-11-20T19:34:34.763Z,100024.27
2022-11-20T19:37:11.288Z,100021.89
2022-11-20T19:39:43.518Z,100022.99
2022-11-20T19:42:16.720Z,100014.26
2022-11-20T19:44:48.461Z,100010.50
2022-11-20T19:47:40.825Z,100005.59
2022-11-20T19:50:25.791Z,100004.56
2022-11-20T19:53:02.272Z,100006.20
2022-11-20T19:55:34.870Z,100006.24
2022-11-20T19:58:07.095Z,100002.48
2022-11-20T20:00:39.068Z,99997.64
2022-11-20T20:03:14.904Z,99991.57
2022-11-20T20:05:52.320Z,99987.06
2022-11-20T20:08:24.412Z,99991.98
2022-11-20T20:10:59.918Z,99993.56
2022-11-20T20:13:33.570Z,99992.04
2022-11-20T20:16:11.592Z,99989.64
2022-11-20T20:18:45.801Z,99990.66
2022-11-20T20:21:24.328Z,99991.21
2022-11-20T20:23:57.404Z,99994.02
2022-11-20T20:26:31.606Z,99995.92
2022-11-20T20:29:04.971Z,99988.79
2022-11-20T20:31:38.492Z,99991.64
2022-11-20T20:34:15.510Z,99991.09
2022-11-20T20:36:47.300Z,99992.30
2022-11-20T20:39:20.030Z,99994.34
2022-11-20T20:41:53.470Z,99995.36
2022-11-20T20:44:43.025Z,99992.11
2022-11-20T20:47:14.874Z,99991.89
2022-11-20T20:49:47.114Z,99989.20
2022-11-20T20:52:19.108Z,99987.45
2022-11-20T20:54:51.382Z,99993.52
2022-11-20T20:57:23.801Z,99994.45
2022-11-20T20:59:55.965Z,99993.64
2022-11-20T21:02:28.246Z,99984.70
2022-11-20T21:05:00.657Z,99989.14
2022-11-20T21:07:33.629Z,99986.87
2022-11-20T21:10:05.911Z,99985.29
2022-11-20T21:12:37.758Z,99987.19
2022-11-20T21:15:10.825Z,99989.59
2022-11-20T21:17:44.424Z,99989.91
2022-11-20T21:20:45.269Z,99989.69
2022-11-20T21:23:17.728Z,99984.36
2022-11-20T21:25:49.851Z,99984.80
2022-11-20T21:28:21.879Z,99982.95
2022-11-20T21:30:54.050Z,99976.58
2022-11-20T21:33:26.004Z,99969.36
2022-11-20T21:35:57.894Z,99974.02
2022-11-20T21:38:29.761Z,99975.54
2022-11-20T21:41:01.705Z,99982.02
2022-11-20T21:43:33.657Z,99981.73
2022-11-20T21:46:07.819Z,99975.39
2022-11-20T21:48:46.654Z,99975.64
2022-11-20T21:51:22.924Z,99976.36
2022-11-20T21:53:57.931Z,99975.23
2022-11-20T21:56:29.996Z,99975.12
2022-11-20T21:59:02.092Z,99977.46
2022-11-20T22:01:34.224Z,99981.05
2022-11-20T22:04:07.833Z,99980.80
2022-11-20T22:06:39.639Z,99983.19
2022-11-20T22:09:12.782Z,99980.14
2022-11-20T22:11:44.507Z,99981.73
2022-11-20T22:14:22.785Z,99986.36
2022-11-20T22:16:56.425Z,99986.12
2022-11-20T22:19:31.970Z,99984.37
2022-11-20T22:22:04.089Z,99979.63
2022-11-20T22:24:35.721Z,99983.68
2022-11-20T22:27:07.599Z,99984.30
2022-11-20T22:29:39.409Z,99984.41
2022-11-20T22:32:11.292Z,99979.77
2022-11-20T22:34:43.016Z,99971.02
2022-11-20T22:37:16.183Z,99966.73
2022-11-20T22:39:48.916Z,99965.59
2022-11-20T22:42:20.913Z,99963.98
2022-11-20T22:44:52.956Z,99965.23
2022-11-20T22:47:25.117Z,99967.90
2022-11-20T22:49:56.984Z,99970.67
2022-11-20T22:52:29.006Z,99964.05
2022-11-20T22:55:00.676Z,99969.13
2022-11-20T22:57:34.019Z,99962.08
2022-11-20T23:00:15.099Z,99960.33
2022-11-20T23:02:47.795Z,99962.51
2022-11-20T23:05:22.195Z,99963.38
2022-11-20T23:08:07.225Z,99970.97
2022-11-20T23:10:42.685Z,99964.75
2022-11-20T23:13:19.111Z,99969.94
2022-11-20T23:15:52.989Z,99969.42
2022-11-20T23:18:35.506Z,99969.33
2022-11-20T23:21:09.868Z,99970.37
2022-11-20T23:23:42.757Z,99965.58
2022-11-20T23:26:16.577Z,99973.52
2022-11-20T23:28:49.571Z,99980.35
2022-11-20T23:31:24.137Z,99983.73
2022-11-20T23:33:57.635Z,99988.66
2022-11-20T23:36:30.297Z,99992.39
2022-11-20T23:39:02.195Z,99992.53
2022-11-20T23:41:34.200Z,99989.53
2022-11-20T23:44:06.164Z,99992.10
2022-11-20T23:46:38.979Z,99987.69
2022-11-20T23:49:11.595Z,99981.30
2022-11-20T23:51:43.663Z,99983.17
2022-11-20T23:54:15.452Z,99984.75
2022-11-20T23:56:47.179Z,99986.80
2022-11-20T23:59:19.508Z,99986.20
